createdAt,value
2017-11-17T00:00:16.542Z,29.52
2017-11-17T00:02:44.189Z,28.10
2017-11-17T00:05:12.611Z,28.10
2017-11-17T00:07:40.235Z,29.95
2017-11-17T00:10:07.865Z,30.88
2017-11-17T00:12:35.517Z,31.52
2017-11-17T00:15:03.542Z,29.42
2017-11-17T00:17:31.962Z,29.80
2017-11-17T00:19:59.600Z,29.30
2017-11-17T00:22:27.230Z,21.42
2017-11-17T00:24:54.899Z,28.87
2017-11-17T00:27:22.515Z,27.98
2017-11-17T00:29:50.172Z,25.88
2017-11-17T00:32:17.808Z,28.83
2017-11-17T00:34:45.435Z,33.08
2017-11-17T00:37:13.849Z,29.35
2017-11-17T00:39:41.479Z,28.55
2017-11-17T00:42:09.174Z,34.13
2017-11-17T00:44:37.627Z,29.23
2017-11-17T00:47:05.283Z,27.27
2017-11-17T00:49:32.952Z,29.15
2017-11-17T00:52:01.335Z,35.47
2017-11-17T00:57:02.994Z,30.90
2017-11-17T00:59:30.686Z,38.88
2017-11-17T01:01:58.358Z,45.15
2017-11-17T01:04:26.006Z,44.70
2017-11-17T01:06:53.682Z,47.53
2017-11-17T01:09:21.332Z,42.80
2017-11-17T01:11:49.049Z,47.30
2017-11-17T01:14:16.688Z,44.83
2017-11-17T01:16:44.332Z,47.35
2017-11-17T01:19:12.001Z,43.70
2017-11-17T01:21:39.677Z,39.40
2017-11-17T01:24:07.340Z,45.00
2017-11-17T01:26:34.980Z,36.33
2017-11-17T01:29:02.635Z,39.88
2017-11-17T01:31:30.311Z,35.20
2017-11-17T01:33:57.978Z,40.97
2017-11-17T01:36:25.680Z,36.58
2017-11-17T01:38:53.402Z,38.70
2017-11-17T01:41:21.058Z,32.70
2017-11-17T01:43:48.744Z,35.67
2017-11-17T01:46:17.140Z,38.20
2017-11-17T01:48:44.836Z,36.55
2017-11-17T01:51:12.489Z,34.22
2017-11-17T01:53:40.170Z,43.90
2017-11-17T01:56:07.883Z,35.50
2017-11-17T01:58:35.520Z,42.60
2017-11-17T02:01:03.192Z,37.38
2017-11-17T02:03:35.659Z,37.10
2017-11-17T02:06:04.104Z,42.10
2017-11-17T02:08:31.781Z,41.08
2017-11-17T02:10:59.417Z,33.88
2017-11-17T02:13:27.947Z,39.45
2017-11-17T02:15:56.340Z,42.10
2017-11-17T02:18:24.897Z,39.63
2017-11-17T02:20:53.300Z,32.75
2017-11-17T02:23:20.951Z,35.20
2017-11-17T02:25:48.613Z,38.90
2017-11-17T02:28:17.003Z,33.33
2017-11-17T02:30:44.669Z,41.92
2017-11-17T02:33:13.084Z,35.28
2017-11-17T02:35:40.758Z,31.60
2017-11-17T02:38:08.467Z,31.27
2017-11-17T02:40:36.100Z,34.88
2017-11-17T02:43:03.820Z,33.25
2017-11-17T02:45:31.469Z,37.22
2017-11-17T02:47:59.895Z,36.55
2017-11-17T02:50:27.583Z,35.88
2017-11-17T02:52:55.233Z,32.10
2017-11-17T02:55:22.966Z,33.28
2017-11-17T02:57:50.605Z,36.08
2017-11-17T03:00:18.269Z,33.00
2017-11-17T03:02:45.940Z,37.83
2017-11-17T03:05:13.575Z,31.30
2017-11-17T03:07:41.300Z,38.20
2017-11-17T03:10:08.935Z,32.38
2017-11-17T03:12:36.592Z,35.90
2017-11-17T03:15:04.263Z,31.37
2017-11-17T03:17:31.895Z,38.88
2017-11-17T03:19:59.604Z,32.10
2017-11-17T03:22:27.316Z,33.25
2017-11-17T03:24:54.953Z,32.42
2017-11-17T03:27:23.404Z,35.05
2017-11-17T03:29:51.027Z,32.88
2017-11-17T03:32:18.674Z,30.50
2017-11-17T03:34:46.343Z,30.60
2017-11-17T03:37:13.989Z,34.38
2017-11-17T03:39:41.699Z,32.72
2017-11-17T03:42:09.368Z,25.80
2017-11-17T03:44:37.059Z,31.58
2017-11-17T03:47:05.486Z,33.45
2017-11-17T03:49:33.251Z,36.60
2017-11-17T03:52:01.647Z,33.80
2017-11-17T03:54:29.305Z,30.48
2017-11-17T03:56:56.992Z,33.58
2017-11-17T03:59:24.639Z,34.78
2017-11-17T04:01:52.284Z,32.35
2017-11-17T04:04:20.290Z,32.88
2017-11-17T04:06:47.930Z,29.05
2017-11-17T04:09:15.655Z,31.37
2017-11-17T04:11:44.057Z,36.15
2017-11-17T04:14:11.720Z,29.87
2017-11-17T04:16:39.528Z,30.88
2017-11-17T04:19:07.223Z,31.33
2017-11-17T04:21:34.883Z,32.08
2017-11-17T04:24:02.542Z,33.25
2017-11-17T04:26:30.206Z,36.55
2017-11-17T04:28:57.871Z,34.30
2017-11-17T04:31:25.495Z,35.45
2017-11-17T04:33:53.185Z,35.50
2017-11-17T04:36:20.851Z,39.53
2017-11-17T04:38:48.528Z,34.20
2017-11-17T04:41:16.205Z,40.70
2017-11-17T04:43:43.860Z,38.75
2017-11-17T04:46:11.559Z,34.42
2017-11-17T04:48:39.238Z,34.38
2017-11-17T04:51:06.898Z,35.70
2017-11-17T04:53:34.734Z,34.13
2017-11-17T04:56:02.390Z,34.25
2017-11-17T04:58:30.070Z,36.70
2017-11-17T05:00:57.740Z,32.70
2017-11-17T05:03:25.424Z,38.20
2017-11-17T05:05:53.884Z,37.03
2017-11-17T05:08:21.595Z,37.42
2017-11-17T05:10:49.241Z,48.33
2017-11-17T05:13:16.881Z,36.58
2017-11-17T05:15:44.558Z,35.67
2017-11-17T05:18:12.224Z,42.38
2017-11-17T05:20:40.637Z,40.90
2017-11-17T05:23:08.322Z,51.92
2017-11-17T05:25:35.969Z,50.72
2017-11-17T05:28:03.644Z,53.22
2017-11-17T05:30:31.371Z,51.75
2017-11-17T05:32:59.098Z,51.60
2017-11-17T05:35:26.776Z,42.25
2017-11-17T05:37:54.414Z,40.80
2017-11-17T05:40:22.847Z,53.75
2017-11-17T05:42:50.518Z,54.47
2017-11-17T05:45:18.385Z,53.75
2017-11-17T05:47:46.838Z,59.92
2017-11-17T05:50:14.507Z,51.08
2017-11-17T05:52:42.186Z,53.67
2017-11-17T05:55:10.015Z,49.17
2017-11-17T05:57:39.597Z,48.92
2017-11-17T06:00:07.407Z,63.60
2017-11-17T06:02:39.935Z,73.35
2017-11-17T06:05:07.742Z,52.70
2017-11-17T06:07:35.627Z,53.55
2017-11-17T06:10:03.281Z,61.45
2017-11-17T06:12:30.988Z,49.90
2017-11-17T06:14:59.393Z,57.80
2017-11-17T06:17:27.071Z,53.00
2017-11-17T06:19:54.697Z,49.58
2017-11-17T06:22:23.145Z,52.45
2017-11-17T06:24:51.306Z,45.78
2017-11-17T06:27:19.233Z,59.72
2017-11-17T06:29:46.942Z,53.03
2017-11-17T06:32:15.341Z,41.55
2017-11-17T06:34:43.777Z,46.15
2017-11-17T06:37:11.447Z,41.35
2017-11-17T06:39:39.074Z,47.65
2017-11-17T06:42:06.808Z,49.10
2017-11-17T06:44:34.527Z,48.65
2017-11-17T06:47:02.181Z,62.20
2017-11-17T06:49:29.903Z,42.08
2017-11-17T06:52:01.060Z,45.45
2017-11-17T06:57:02.752Z,59.53
2017-11-17T06:59:31.021Z,55.15
2017-11-17T07:01:59.614Z,39.67
2017-11-17T07:04:27.242Z,48.38
2017-11-17T07:06:55.725Z,58.35
2017-11-17T07:09:24.261Z,48.72
2017-11-17T07:11:52.561Z,55.12
2017-11-17T07:14:20.239Z,55.40
2017-11-17T07:16:47.880Z,65.22
2017-11-17T07:19:15.528Z,77.68
2017-11-17T07:21:43.250Z,66.97
2017-11-17T07:24:10.874Z,62.62
2017-11-17T07:26:38.535Z,47.50
2017-11-17T07:29:06.229Z,48.42
2017-11-17T07:31:33.857Z,64.68
2017-11-17T07:34:01.521Z,53.22
2017-11-17T07:36:29.152Z,44.33
2017-11-17T07:38:56.813Z,51.50
2017-11-17T07:41:24.554Z,45.20
2017-11-17T07:43:52.213Z,48.42
2017-11-17T07:46:20.296Z,49.60
2017-11-17T07:48:49.105Z,36.72
2017-11-17T07:51:17.747Z,45.72
2017-11-17T07:53:45.963Z,47.35
2017-11-17T07:56:13.582Z,32.95
2017-11-17T07:58:41.266Z,34.33
2017-11-17T08:01:08.910Z,35.03
2017-11-17T08:03:36.526Z,45.15
2017-11-17T08:06:04.241Z,46.10
2017-11-17T08:08:31.897Z,45.40
2017-11-17T08:10:59.573Z,58.00
2017-11-17T08:13:27.198Z,43.72
2017-11-17T08:15:54.865Z,35.03
2017-11-17T08:18:31.500Z,57.10
2017-11-17T08:20:59.178Z,52.97
2017-11-17T08:23:26.845Z,56.17
2017-11-17T08:25:54.480Z,50.85
2017-11-17T08:28:22.261Z,34.20
2017-11-17T08:30:50.207Z,43.22
2017-11-17T08:33:18.104Z,54.03
2017-11-17T08:35:45.783Z,58.95
2017-11-17T08:38:13.419Z,39.55
2017-11-17T08:40:41.116Z,43.70
2017-11-17T08:43:08.756Z,43.30
2017-11-17T08:45:36.388Z,31.75
2017-11-17T08:48:04.052Z,49.13
2017-11-17T08:50:32.453Z,33.10
2017-11-17T08:53:00.338Z,54.22
2017-11-17T08:55:28.016Z,51.17
2017-11-17T08:57:55.672Z,50.28
2017-11-17T09:00:24.127Z,38.92
2017-11-17T09:02:51.771Z,44.72
2017-11-17T09:05:19.422Z,49.13
2017-11-17T09:07:47.049Z,51.05
2017-11-17T09:10:14.736Z,46.17
2017-11-17T09:12:42.428Z,48.58
2017-11-17T09:15:10.125Z,55.25
2017-11-17T09:17:38.595Z,43.80
2017-11-17T09:20:06.236Z,50.97
2017-11-17T09:22:33.916Z,40.90
2017-11-17T09:25:01.711Z,48.83
2017-11-17T09:27:29.345Z,49.45
2017-11-17T09:29:57.020Z,50.90
2017-11-17T09:32:24.674Z,42.35
2017-11-17T09:34:54.403Z,59.65
2017-11-17T09:37:22.128Z,55.35
2017-11-17T09:39:49.773Z,58.78
2017-11-17T09:42:17.451Z,37.00
2017-11-17T09:44:45.107Z,52.33
2017-11-17T09:47:12.832Z,47.33
2017-11-17T09:49:40.524Z,39.70
2017-11-17T09:52:08.202Z,52.47
2017-11-17T09:54:35.902Z,49.03
2017-11-17T09:57:03.531Z,62.50
2017-11-17T09:59:31.185Z,46.83
2017-11-17T10:01:58.853Z,58.47
2017-11-17T10:04:26.512Z,58.87
2017-11-17T10:06:54.791Z,62.62
2017-11-17T10:09:22.509Z,54.97
2017-11-17T10:11:50.203Z,58.50
2017-11-17T10:14:18.328Z,55.97
2017-11-17T10:16:47.040Z,43.60
2017-11-17T10:19:15.501Z,50.55
2017-11-17T10:21:43.148Z,63.47
2017-11-17T10:24:11.598Z,66.93
2017-11-17T10:26:40.141Z,45.10
2017-11-17T10:29:07.954Z,56.20
2017-11-17T10:31:35.768Z,35.42
2017-11-17T10:34:04.167Z,52.47
2017-11-17T10:36:31.828Z,42.20
2017-11-17T10:38:59.786Z,51.65
2017-11-17T10:41:27.462Z,52.03
2017-11-17T10:43:55.532Z,34.00
2017-11-17T10:46:23.201Z,50.85
2017-11-17T10:48:51.871Z,53.00
2017-11-17T10:51:19.544Z,40.90
2017-11-17T10:53:47.186Z,46.65
2017-11-17T10:56:34.619Z,53.38
2017-11-17T10:59:04.147Z,35.90
2017-11-17T11:01:32.764Z,51.10
2017-11-17T11:04:00.408Z,58.78
2017-11-17T11:06:28.050Z,32.38
2017-11-17T11:08:55.741Z,42.92
2017-11-17T11:11:29.100Z,43.28
2017-11-17T11:13:56.769Z,34.58
2017-11-17T11:16:24.430Z,49.88
2017-11-17T11:18:52.835Z,33.90
2017-11-17T11:21:20.573Z,38.95
2017-11-17T11:23:48.208Z,34.10
2017-11-17T11:26:15.883Z,34.20
2017-11-17T11:28:43.569Z,33.35
2017-11-17T11:31:11.446Z,46.42
2017-11-17T11:33:39.853Z,41.45
2017-11-17T11:36:07.517Z,32.78
2017-11-17T11:38:35.524Z,35.00
2017-11-17T11:41:03.183Z,37.28
2017-11-17T11:43:30.861Z,40.58
2017-11-17T11:45:58.511Z,42.67
2017-11-17T11:48:26.154Z,40.85
2017-11-17T11:50:53.852Z,30.55
2017-11-17T11:53:22.259Z,28.27
2017-11-17T11:55:49.912Z,39.75
2017-11-17T11:58:17.594Z,34.65
2017-11-17T12:00:45.229Z,26.48
2017-11-17T12:03:13.663Z,33.55
2017-11-17T12:05:41.357Z,34.60
2017-11-17T12:08:09.756Z,29.95
2017-11-17T12:10:37.514Z,31.65
2017-11-17T12:13:05.225Z,28.02
2017-11-17T12:15:32.867Z,29.77
2017-11-17T12:18:01.287Z,29.67
2017-11-17T12:20:29.912Z,27.13
2017-11-17T12:22:57.565Z,29.70
2017-11-17T12:25:25.285Z,23.87
2017-11-17T12:27:52.942Z,23.08
2017-11-17T12:30:20.587Z,24.90
2017-11-17T12:32:48.979Z,25.73
2017-11-17T12:35:16.653Z,24.90
2017-11-17T12:37:44.301Z,28.40
2017-11-17T12:40:11.922Z,22.95
2017-11-17T12:42:39.603Z,26.77
2017-11-17T12:45:07.260Z,26.23
2017-11-17T12:47:34.915Z,18.65
2017-11-17T12:50:02.595Z,20.95
2017-11-17T12:52:30.250Z,16.33
2017-11-17T12:54:57.913Z,15.65
2017-11-17T12:57:25.604Z,18.70
2017-11-17T12:59:53.256Z,18.52
2017-11-17T13:02:20.952Z,17.00
2017-11-17T13:04:48.593Z,16.35
2017-11-17T13:07:16.272Z,14.95
2017-11-17T13:09:43.957Z,16.50
2017-11-17T13:12:12.397Z,16.95
2017-11-17T13:14:40.098Z,19.40
2017-11-17T13:17:07.743Z,19.50
2017-11-17T13:19:35.380Z,18.60
2017-11-17T13:22:03.052Z,17.10
2017-11-17T13:24:30.748Z,18.23
2017-11-17T13:26:58.616Z,16.83
2017-11-17T13:29:26.292Z,23.52
2017-11-17T13:31:53.971Z,18.20
2017-11-17T13:34:21.626Z,15.63
2017-11-17T13:36:49.301Z,16.45
2017-11-17T13:39:17.731Z,9.90
2017-11-17T13:41:45.359Z,12.50
2017-11-17T13:44:12.993Z,15.40
2017-11-17T13:46:40.652Z,18.65
2017-11-17T13:49:08.321Z,13.25
2017-11-17T13:51:35.985Z,14.50
2017-11-17T13:54:03.617Z,11.98
2017-11-17T13:56:31.269Z,14.57
2017-11-17T13:58:58.969Z,15.25
2017-11-17T14:01:26.653Z,16.92
2017-11-17T14:03:54.316Z,21.20
2017-11-17T14:06:21.990Z,17.27
2017-11-17T14:08:49.645Z,12.75
2017-11-17T14:11:17.330Z,15.20
2017-11-17T14:13:45.018Z,16.33
2017-11-17T14:16:13.476Z,12.65
2017-11-17T14:18:41.139Z,12.30
2017-11-17T14:21:09.541Z,11.23
2017-11-17T14:23:37.204Z,14.90
2017-11-17T14:26:04.844Z,16.12
2017-11-17T14:28:32.519Z,16.48
2017-11-17T14:31:00.170Z,13.13
2017-11-17T14:33:27.810Z,14.98
2017-11-17T14:35:55.475Z,13.02
2017-11-17T14:38:23.883Z,12.55
2017-11-17T14:40:51.566Z,12.98
2017-11-17T14:43:19.196Z,11.43
2017-11-17T14:45:46.823Z,7.35
2017-11-17T14:48:14.503Z,18.50
2017-11-17T14:50:42.157Z,14.15
2017-11-17T14:53:09.819Z,11.85
2017-11-17T14:55:38.224Z,13.30
2017-11-17T14:58:05.843Z,19.05
2017-11-17T15:00:34.263Z,13.93
2017-11-17T15:03:01.971Z,8.73
2017-11-17T15:05:29.647Z,14.30
2017-11-17T15:07:57.560Z,14.25
2017-11-17T15:10:25.180Z,11.30
2017-11-17T15:12:52.857Z,11.23
2017-11-17T15:15:21.320Z,13.05
2017-11-17T15:17:49.784Z,12.27
2017-11-17T15:20:17.416Z,15.32
2017-11-17T15:22:46.386Z,12.13
2017-11-17T15:25:14.106Z,11.18
2017-11-17T15:27:41.812Z,10.85
2017-11-17T15:30:09.550Z,12.80
2017-11-17T15:32:37.234Z,13.45
2017-11-17T15:35:05.164Z,13.07
2017-11-17T15:37:32.831Z,15.32
2017-11-17T15:40:00.465Z,13.30
2017-11-17T15:42:28.155Z,10.85
2017-11-17T15:44:55.790Z,14.07
2017-11-17T15:47:23.508Z,15.82
2017-11-17T15:49:51.202Z,17.02
2017-11-17T15:52:18.837Z,14.40
2017-11-17T15:54:46.511Z,16.85
2017-11-17T15:57:14.136Z,16.05
2017-11-17T15:59:41.756Z,17.10
2017-11-17T16:02:09.421Z,12.30
2017-11-17T16:04:37.124Z,13.00
2017-11-17T16:07:04.797Z,13.60
2017-11-17T16:09:32.439Z,12.52
2017-11-17T16:12:00.134Z,16.35
2017-11-17T16:14:27.790Z,14.00
2017-11-17T16:16:56.217Z,22.67
2017-11-17T16:19:23.882Z,17.37
2017-11-17T16:21:51.527Z,17.75
2017-11-17T16:24:19.165Z,15.35
2017-11-17T16:26:46.876Z,15.10
2017-11-17T16:29:14.568Z,13.80
2017-11-17T16:31:42.328Z,26.05
2017-11-17T16:34:10.749Z,23.80
2017-11-17T16:36:38.385Z,23.12
2017-11-17T16:39:06.044Z,18.30
2017-11-17T16:41:33.723Z,20.08
2017-11-17T16:44:01.419Z,22.50
2017-11-17T16:46:29.074Z,22.30
2017-11-17T16:48:56.715Z,20.50
2017-11-17T16:51:24.375Z,16.35
2017-11-17T16:53:52.011Z,17.20
2017-11-17T16:56:19.717Z,23.27
2017-11-17T16:58:47.352Z,21.80
2017-11-17T17:01:15.024Z,18.52
2017-11-17T17:03:43.457Z,13.35
2017-11-17T17:06:11.090Z,14.63
2017-11-17T17:08:38.772Z,17.15
2017-11-17T17:11:06.650Z,15.18
2017-11-17T17:13:34.290Z,9.20
2017-11-17T17:16:02.815Z,11.48
2017-11-17T17:18:30.869Z,15.27
2017-11-17T17:20:58.797Z,21.95
2017-11-17T17:23:26.429Z,16.05
2017-11-17T17:25:54.107Z,14.15
2017-11-17T17:28:21.763Z,11.50
2017-11-17T17:30:49.398Z,9.73
2017-11-17T17:33:17.152Z,12.70
2017-11-17T17:35:44.799Z,9.77
2017-11-17T17:38:12.436Z,12.20
2017-11-17T17:40:40.085Z,10.80
2017-11-17T17:43:08.119Z,7.30
2017-11-17T17:45:35.789Z,8.23
2017-11-17T17:48:03.417Z,11.88
2017-11-17T17:50:31.068Z,7.15
2017-11-17T17:52:58.766Z,9.65
2017-11-17T17:55:26.463Z,7.00
2017-11-17T17:57:54.156Z,9.45
2017-11-17T18:00:21.803Z,14.25
2017-11-17T18:02:49.474Z,7.55
2017-11-17T18:05:17.945Z,12.20
2017-11-17T18:07:45.601Z,9.75
2017-11-17T18:10:13.315Z,14.07
2017-11-17T18:12:40.958Z,17.02
2017-11-17T18:15:10.101Z,13.88
2017-11-17T18:17:37.753Z,13.88
2017-11-17T18:20:05.452Z,10.40
2017-11-17T18:22:34.074Z,12.65
2017-11-17T18:25:02.109Z,16.37
2017-11-17T18:27:29.845Z,16.20
2017-11-17T18:29:58.333Z,16.98
2017-11-17T18:32:25.997Z,22.00
2017-11-17T18:34:53.723Z,26.80
2017-11-17T18:37:21.369Z,23.45
2017-11-17T18:39:49.135Z,33.40
2017-11-17T18:42:16.884Z,21.87
2017-11-17T18:44:44.812Z,19.70
2017-11-17T18:47:12.500Z,27.55
2017-11-17T18:49:40.240Z,24.08
2017-11-17T18:52:07.915Z,26.52
2017-11-17T18:54:35.588Z,27.50
2017-11-17T18:57:03.315Z,25.23
2017-11-17T18:59:31.015Z,23.95
2017-11-17T19:01:58.830Z,18.12
2017-11-17T19:04:26.485Z,20.62
2017-11-17T19:06:54.199Z,37.10
2017-11-17T19:09:21.886Z,37.83
2017-11-17T19:11:49.605Z,30.25
2017-11-17T19:14:18.327Z,25.25
2017-11-17T19:16:46.080Z,24.12
2017-11-17T19:19:14.013Z,23.85
2017-11-17T19:21:41.858Z,24.00
2017-11-17T19:24:10.101Z,20.98
2017-11-17T19:26:38.618Z,20.02
2017-11-17T19:29:06.283Z,21.48
2017-11-17T19:31:34.575Z,17.45
2017-11-17T19:34:03.012Z,27.23
2017-11-17T19:36:30.717Z,26.27
2017-11-17T19:38:58.380Z,42.10
2017-11-17T19:41:26.041Z,33.58
2017-11-17T19:43:53.742Z,27.42
2017-11-17T19:46:21.387Z,31.65
2017-11-17T19:48:49.051Z,41.10
2017-11-17T19:51:17.204Z,38.08
2017-11-17T19:53:44.876Z,37.20
2017-11-17T19:56:12.579Z,30.20
2017-11-17T19:58:40.258Z,45.42
2017-11-17T20:01:07.966Z,34.70
2017-11-17T20:03:35.654Z,38.65
2017-11-17T20:06:03.313Z,35.30
2017-11-17T20:08:30.967Z,26.35
2017-11-17T20:10:58.634Z,26.87
2017-11-17T20:13:26.348Z,18.65
2017-11-17T20:15:54.088Z,22.17
2017-11-17T20:18:21.718Z,16.08
2017-11-17T20:20:49.410Z,19.30
2017-11-17T20:23:17.047Z,15.27
2017-11-17T20:25:44.719Z,14.32
2017-11-17T20:28:13.152Z,11.38
2017-11-17T20:30:48.292Z,13.30
2017-11-17T20:33:15.921Z,11.73
2017-11-17T20:35:43.563Z,13.00
2017-11-17T20:38:11.241Z,14.07
2017-11-17T20:40:38.898Z,10.93
2017-11-17T20:43:12.120Z,13.40
2017-11-17T20:45:40.423Z,11.75
2017-11-17T20:48:08.067Z,9.13
2017-11-17T20:50:35.772Z,9.10
2017-11-17T20:53:03.413Z,11.18
2017-11-17T20:55:31.088Z,15.30
2017-11-17T20:57:58.722Z,14.85
2017-11-17T21:00:26.376Z,13.65
2017-11-17T21:02:54.065Z,11.48
2017-11-17T21:05:22.467Z,16.17
2017-11-17T21:07:50.155Z,11.63
2017-11-17T21:10:17.848Z,22.55
2017-11-17T21:12:45.523Z,21.77
2017-11-17T21:15:13.267Z,20.85
2017-11-17T21:17:41.056Z,17.45
2017-11-17T21:20:09.038Z,17.23
2017-11-17T21:22:36.944Z,12.32
2017-11-17T21:25:04.586Z,18.80
2017-11-17T21:27:32.359Z,14.55
2017-11-17T21:30:00.031Z,16.75
2017-11-17T21:32:27.713Z,15.50
2017-11-17T21:34:55.545Z,19.35
2017-11-17T21:37:23.180Z,18.58
2017-11-17T21:39:50.861Z,24.00
2017-11-17T21:42:18.544Z,18.60
2017-11-17T21:44:46.243Z,16.60
2017-11-17T21:47:13.877Z,15.98
2017-11-17T21:49:41.513Z,24.52
2017-11-17T21:52:09.950Z,14.68
2017-11-17T21:54:37.634Z,21.25
2017-11-17T21:57:05.345Z,21.98
2017-11-17T22:02:16.071Z,17.40
2017-11-17T22:04:44.287Z,22.85
2017-11-17T22:07:11.965Z,16.27
2017-11-17T22:09:39.640Z,19.58
2017-11-17T22:12:07.396Z,16.08
2017-11-17T22:14:35.073Z,17.27
2017-11-17T22:17:02.907Z,19.92
2017-11-17T22:19:30.563Z,17.15
2017-11-17T22:21:58.223Z,19.30
2017-11-17T22:24:25.871Z,12.30
2017-11-17T22:26:53.541Z,16.12
2017-11-17T22:29:21.164Z,15.20
2017-11-17T22:31:50.200Z,14.73
2017-11-17T22:34:18.260Z,13.82
2017-11-17T22:36:45.924Z,12.13
2017-11-17T22:39:14.887Z,15.20
2017-11-17T22:41:45.635Z,12.82
2017-11-17T22:44:13.392Z,11.02
2017-11-17T22:46:41.214Z,10.05
2017-11-17T22:49:09.718Z,10.70
2017-11-17T22:51:37.429Z,13.80
2017-11-17T22:54:05.092Z,11.85
2017-11-17T22:56:33.596Z,14.50
2017-11-17T22:59:01.334Z,15.93
2017-11-17T23:01:29.321Z,20.52
2017-11-17T23:03:57.100Z,19.67
2017-11-17T23:06:24.900Z,25.15
2017-11-17T23:08:52.599Z,17.37
2017-11-17T23:11:20.241Z,12.07
2017-11-17T23:13:48.031Z,18.23
2017-11-17T23:16:15.753Z,14.55
2017-11-17T23:18:43.547Z,20.25
2017-11-17T23:21:11.554Z,20.08
2017-11-17T23:23:39.195Z,16.67
2017-11-17T23:26:06.854Z,13.45
2017-11-17T23:28:36.956Z,12.13
2017-11-17T23:31:05.430Z,20.75
2017-11-17T23:33:33.104Z,16.10
2017-11-17T23:36:00.800Z,15.02
2017-11-17T23:38:28.548Z,23.20
2017-11-17T23:40:56.319Z,21.17
2017-11-17T23:43:24.084Z,22.25
2017-11-17T23:45:51.772Z,17.35
2017-11-17T23:48:19.430Z,20.08
2017-11-17T23:50:47.206Z,21.23
2017-11-17T23:53:14.974Z,17.02
2017-11-17T23:55:42.666Z,21.10
2017-11-17T23:58:10.358Z,20.35
